createdAt,value
2023-05-22T05:00:56.821Z,1144.00
2023-05-22T05:01:56.709Z,1172.00
2023-05-22T05:02:56.717Z,1204.00
2023-05-22T05:03:56.725Z,1236.00
2023-05-22T05:04:56.678Z,1280.00
2023-05-22T05:05:56.655Z,1320.00
2023-05-22T05:06:56.648Z,1364.00
2023-05-22T05:07:56.660Z,1396.00
2023-05-22T05:08:56.657Z,1420.00
2023-05-22T05:09:56.612Z,1444.00
2023-05-22T05:10:56.602Z,1476.00
2023-05-22T05:12:01.622Z,1512.00
2023-05-22T05:12:56.611Z,1564.00
2023-05-22T05:13:56.599Z,1592.00
2023-05-22T05:14:56.556Z,1600.00
2023-05-22T05:15:56.544Z,1632.00
2023-05-22T05:16:56.640Z,1680.00
2023-05-22T05:17:56.557Z,1744.00
2023-05-22T05:18:56.600Z,1900.00
2023-05-22T05:19:56.501Z,2072.00
2023-05-22T05:20:56.501Z,2132.00
2023-05-22T05:21:56.482Z,2128.00
2023-05-22T05:23:01.515Z,2036.00
2023-05-22T05:23:56.455Z,2112.00
2023-05-22T05:24:56.451Z,2164.00
2023-05-22T05:25:56.456Z,2160.00
2023-05-22T05:26:56.431Z,2180.00
2023-05-22T05:27:56.428Z,2268.00
2023-05-22T05:28:56.407Z,2324.00
2023-05-22T05:29:56.389Z,2324.00
2023-05-22T05:30:56.383Z,2352.00
2023-05-22T05:31:56.449Z,2412.00
2023-05-22T05:32:56.458Z,2508.00
2023-05-22T05:34:01.378Z,2612.00
2023-05-22T05:34:56.337Z,2632.00
2023-05-22T05:35:56.435Z,2596.00
2023-05-22T05:36:56.324Z,2540.00
2023-05-22T05:37:56.314Z,2516.00
2023-05-22T05:38:56.358Z,2500.00
2023-05-22T05:39:56.280Z,2420.00
2023-05-22T05:40:56.269Z,2352.00
2023-05-22T05:41:56.272Z,2316.00
2023-05-22T05:42:56.261Z,2352.00
2023-05-22T05:43:56.307Z,2408.00
2023-05-22T05:45:01.259Z,2460.00
2023-05-22T05:45:56.279Z,2484.00
2023-05-22T05:46:56.214Z,2500.00
2023-05-22T05:47:56.273Z,2536.00
2023-05-22T05:48:56.208Z,2584.00
2023-05-22T05:49:56.242Z,2656.00
2023-05-22T05:50:56.184Z,2696.00
2023-05-22T05:51:56.149Z,2700.00
2023-05-22T05:52:56.137Z,2744.00
2023-05-22T05:53:56.125Z,2784.00
2023-05-22T05:54:56.124Z,2828.00
2023-05-22T05:56:01.216Z,2828.00
2023-05-22T05:56:56.095Z,2828.00
2023-05-22T05:57:56.085Z,2844.00
2023-05-22T05:58:56.073Z,2848.00
2023-05-22T05:59:56.068Z,2856.00
2023-05-22T06:00:56.056Z,2876.00
2023-05-22T06:01:56.093Z,2884.00
2023-05-22T06:02:56.196Z,2924.00
2023-05-22T06:03:56.124Z,2948.00
2023-05-22T06:04:56.119Z,2980.00
2023-05-22T06:05:56.125Z,2996.00
2023-05-22T06:07:01.008Z,3032.00
2023-05-22T06:07:56.014Z,3060.00
2023-05-22T06:08:55.959Z,3152.00
2023-05-22T06:09:55.958Z,3288.00
2023-05-22T06:10:55.939Z,3444.00
2023-05-22T06:11:55.923Z,3416.00
2023-05-22T06:12:55.915Z,3344.00
2023-05-22T06:13:56.024Z,3300.00
2023-05-22T06:14:55.906Z,3352.00
2023-05-22T06:15:55.898Z,3428.00
2023-05-22T06:16:55.961Z,3520.00
2023-05-22T06:18:00.899Z,3580.00
2023-05-22T06:18:55.873Z,3488.00
2023-05-22T06:19:55.938Z,3444.00
2023-05-22T06:20:55.852Z,3520.00
2023-05-22T06:21:55.812Z,3560.00
2023-05-22T06:22:55.801Z,3612.00
2023-05-22T06:23:55.809Z,3704.00
2023-05-22T06:24:55.807Z,3836.00
2023-05-22T06:25:55.855Z,3960.00
2023-05-22T06:26:55.761Z,3932.00
2023-05-22T06:27:55.747Z,4028.00
2023-05-22T06:29:00.778Z,4204.00
2023-05-22T06:29:56.514Z,4508.00
2023-05-22T06:30:55.722Z,5136.00
2023-05-22T06:31:55.760Z,5460.00
2023-05-22T06:32:55.827Z,5424.00
2023-05-22T06:33:55.805Z,5436.00
2023-05-22T06:34:55.675Z,5632.00
2023-05-22T06:35:55.666Z,5528.00
2023-05-22T06:36:55.670Z,5588.00
2023-05-22T06:37:55.657Z,5916.00
2023-05-22T06:38:55.697Z,5692.00
2023-05-22T06:40:00.650Z,4992.00
2023-05-22T06:40:55.611Z,4104.00
2023-05-22T06:41:55.595Z,3868.00
2023-05-22T06:42:55.590Z,3920.00
2023-05-22T06:43:55.568Z,4088.00
2023-05-22T06:44:55.614Z,4292.00
2023-05-22T06:45:55.603Z,4288.00
2023-05-22T06:46:55.543Z,4076.00
2023-05-22T06:47:55.643Z,4032.00
2023-05-22T06:48:55.518Z,4344.00
2023-05-22T06:49:55.516Z,4604.00
2023-05-22T06:51:00.616Z,4492.00
2023-05-22T06:51:55.480Z,4472.00
2023-05-22T06:52:55.504Z,4572.00
2023-05-22T06:53:55.463Z,4272.00
2023-05-22T06:54:55.452Z,3876.00
2023-05-22T06:55:55.436Z,3928.00
2023-05-22T06:56:55.449Z,4004.00
2023-05-22T06:57:55.496Z,3836.00
2023-05-22T06:58:55.404Z,3844.00
2023-05-22T06:59:55.394Z,4076.00
2023-05-22T07:00:55.428Z,4188.00
2023-05-22T07:02:00.409Z,4284.00
2023-05-22T07:02:55.395Z,4092.00
2023-05-22T07:03:55.450Z,4132.00
2023-05-22T07:04:55.356Z,4132.00
2023-05-22T07:05:55.362Z,4108.00
2023-05-22T07:06:55.342Z,4080.00
2023-05-22T07:07:55.324Z,4100.00
2023-05-22T07:08:55.319Z,4128.00
2023-05-22T07:09:55.395Z,4152.00
2023-05-22T07:10:55.281Z,4300.00
2023-05-22T07:11:55.270Z,4588.00
2023-05-22T07:13:00.289Z,4436.00
2023-05-22T07:13:55.249Z,4292.00
2023-05-22T07:14:55.237Z,5160.00
2023-05-22T07:15:55.256Z,5540.00
2023-05-22T07:16:55.316Z,5180.00
2023-05-22T07:17:55.275Z,4356.00
2023-05-22T07:18:55.208Z,4288.00
2023-05-22T07:19:55.176Z,4268.00
2023-05-22T07:20:55.216Z,4388.00
2023-05-22T07:21:55.153Z,4536.00
2023-05-22T07:22:55.223Z,4616.00
2023-05-22T07:24:00.190Z,4728.00
2023-05-22T07:24:55.137Z,5176.00
2023-05-22T07:25:55.134Z,5288.00
2023-05-22T07:26:55.104Z,4524.00
2023-05-22T07:27:55.096Z,4656.00
2023-05-22T07:28:55.164Z,5356.00
2023-05-22T07:29:55.064Z,5556.00
2023-05-22T07:30:55.079Z,4936.00
2023-05-22T07:31:55.081Z,4652.00
2023-05-22T07:32:55.089Z,4828.00
2023-05-22T07:33:55.024Z,4856.00
2023-05-22T07:35:00.131Z,4536.00
2023-05-22T07:35:55.024Z,4368.00
2023-05-22T07:36:54.990Z,4292.00
2023-05-22T07:37:54.987Z,4372.00
2023-05-22T07:38:54.971Z,4368.00
2023-05-22T07:39:55.170Z,4428.00
2023-05-22T07:40:55.019Z,4456.00
2023-05-22T07:41:56.939Z,4444.00
2023-05-22T07:42:54.919Z,4400.00
2023-05-22T07:43:54.910Z,4424.00
2023-05-22T07:44:54.909Z,4400.00
2023-05-22T07:45:59.977Z,4396.00
2023-05-22T07:46:54.945Z,4412.00
2023-05-22T07:47:56.398Z,4468.00
2023-05-22T07:48:54.851Z,4572.00
2023-05-22T07:49:54.853Z,4652.00
2023-05-22T07:50:54.844Z,4824.00
2023-05-22T07:51:54.817Z,5028.00
2023-05-22T07:52:54.861Z,5916.00
2023-05-22T07:53:54.802Z,5328.00
2023-05-22T07:54:54.806Z,5192.00
2023-05-22T07:55:54.809Z,4912.00
2023-05-22T07:56:59.787Z,4724.00
2023-05-22T07:57:54.750Z,5176.00
2023-05-22T07:58:54.802Z,5468.00
2023-05-22T07:59:54.731Z,4996.00
2023-05-22T08:00:54.730Z,4832.00
2023-05-22T08:01:56.001Z,5396.00
2023-05-22T08:02:54.773Z,5468.00
2023-05-22T08:03:54.898Z,4972.00
2023-05-22T08:04:54.710Z,4860.00
2023-05-22T08:05:54.672Z,4908.00
2023-05-22T08:06:54.656Z,4868.00
2023-05-22T08:07:59.680Z,4964.00
2023-05-22T08:08:54.648Z,5060.00
2023-05-22T08:09:54.610Z,5104.00
2023-05-22T08:11:03.971Z,5008.00
2023-05-22T08:11:54.650Z,5008.00
2023-05-22T08:12:54.593Z,5680.00
2023-05-22T08:13:54.578Z,5100.00
2023-05-22T08:14:54.556Z,5400.00
2023-05-22T08:16:00.449Z,6344.00
2023-05-22T08:16:54.660Z,9984.00
2023-05-22T08:17:54.590Z,5200.00
2023-05-22T08:18:59.653Z,5264.00
2023-05-22T08:19:54.615Z,5384.00
2023-05-22T08:20:55.072Z,5608.00
2023-05-22T08:21:54.482Z,5276.00
2023-05-22T08:22:54.548Z,5484.00
2023-05-22T08:23:54.463Z,4336.00
2023-05-22T08:24:54.462Z,5712.00
2023-05-22T08:25:54.467Z,6076.00
2023-05-22T08:26:54.420Z,6552.00
2023-05-22T08:27:54.698Z,5768.00
2023-05-22T08:28:54.472Z,6572.00
2023-05-22T08:29:59.426Z,7412.00
2023-05-22T08:43:41.436Z,10556.00
2023-05-22T08:44:37.261Z,8948.00
2023-05-22T08:45:37.191Z,8944.00
2023-05-22T08:46:37.240Z,9464.00
2023-05-22T08:47:37.283Z,10180.00
2023-05-22T08:48:37.171Z,11072.00
2023-05-22T08:49:37.159Z,10736.00
2023-05-22T08:50:37.276Z,11712.00
2023-05-22T08:51:37.201Z,11312.00
2023-05-22T08:52:37.109Z,10252.00
2023-05-22T08:53:37.125Z,18560.00
2023-05-22T09:19:20.460Z,6392.00
2023-05-22T09:19:59.201Z,6616.00
2023-05-22T09:20:59.185Z,7236.00
2023-05-22T09:21:59.178Z,7632.00
2023-05-22T09:22:59.177Z,7552.00
2023-05-22T09:23:59.162Z,7748.00
2023-05-22T09:24:59.146Z,7940.00
2023-05-22T09:25:59.142Z,8068.00
2023-05-22T09:26:59.120Z,8336.00
2023-05-22T09:27:59.133Z,8636.00
2023-05-22T09:28:59.104Z,10020.00
2023-05-22T09:30:04.105Z,10412.00
2023-05-22T09:31:00.665Z,10740.00
2023-05-22T09:31:59.065Z,11064.00
2023-05-22T09:32:59.194Z,12240.00
2023-05-22T09:33:59.053Z,11704.00
2023-05-22T09:34:59.166Z,12756.00
2023-05-22T09:35:59.048Z,12764.00
2023-05-22T09:36:59.040Z,12192.00
2023-05-22T09:37:59.035Z,11308.00
2023-05-22T09:38:58.987Z,9192.00
2023-05-22T09:39:58.990Z,9500.00
2023-05-22T09:41:03.997Z,8824.00
2023-05-22T09:41:58.973Z,7496.00
2023-05-22T09:42:59.116Z,6924.00
2023-05-22T09:44:01.659Z,6588.00
2023-05-22T09:44:58.938Z,6244.00
2023-05-22T09:45:58.977Z,6084.00
2023-05-22T09:46:58.915Z,6148.00
2023-05-22T09:47:58.904Z,6448.00
2023-05-22T09:48:58.927Z,6700.00
2023-05-22T09:49:58.865Z,6952.00
2023-05-22T09:50:58.888Z,7176.00
2023-05-22T09:52:03.869Z,7592.00
2023-05-22T09:52:58.843Z,7932.00
2023-05-22T09:53:58.815Z,8132.00
2023-05-22T09:54:58.812Z,9356.00
2023-05-22T09:55:58.810Z,17088.00
2023-05-22T09:56:58.782Z,10576.00
2023-05-22T09:57:58.769Z,8200.00
2023-05-22T09:58:58.771Z,7632.00
2023-05-22T09:59:58.782Z,7072.00
2023-05-22T10:00:58.756Z,6980.00
2023-05-22T10:01:58.796Z,7032.00
2023-05-22T10:03:03.777Z,6872.00
2023-05-22T10:03:58.762Z,6960.00
2023-05-22T10:04:58.704Z,7288.00
2023-05-22T10:05:58.812Z,7960.00
2023-05-22T10:06:58.712Z,8984.00
2023-05-22T10:07:58.717Z,10348.00
2023-05-22T10:08:58.661Z,10852.00
2023-05-22T10:09:58.678Z,11140.00
2023-05-22T10:10:58.697Z,11364.00
2023-05-22T10:11:58.622Z,11128.00
2023-05-22T10:12:58.612Z,10840.00
2023-05-22T10:14:03.632Z,9756.00
2023-05-22T10:14:58.616Z,9344.00
2023-05-22T10:15:58.616Z,8992.00
2023-05-22T10:16:58.569Z,8676.00
2023-05-22T10:17:58.601Z,10324.00
2023-05-22T10:18:58.596Z,10952.00
2023-05-22T10:19:58.541Z,11408.00
2023-05-22T10:20:58.544Z,14188.00
2023-05-22T10:21:58.508Z,22144.00
2023-05-22T10:22:58.650Z,29440.00
2023-05-22T10:23:58.522Z,31232.00
2023-05-22T10:25:03.506Z,13080.00
2023-05-22T10:25:58.469Z,12356.00
2023-05-22T10:26:58.505Z,11956.00
2023-05-22T10:27:58.469Z,11984.00
2023-05-22T10:28:58.469Z,13544.00
2023-05-22T10:29:58.422Z,13468.00
2023-05-22T10:30:58.432Z,13856.00
2023-05-22T10:31:58.445Z,11772.00
2023-05-22T10:32:58.559Z,11376.00
2023-05-22T10:33:58.442Z,10572.00
2023-05-22T10:34:58.365Z,10480.00
2023-05-22T10:36:03.371Z,10024.00
2023-05-22T10:37:13.291Z,10120.00
2023-05-22T10:37:58.387Z,11004.00
2023-05-22T10:38:58.448Z,10268.00
2023-05-22T10:39:58.348Z,10532.00
2023-05-22T10:40:58.311Z,10332.00
2023-05-22T10:41:58.289Z,15348.00
2023-05-22T10:42:58.290Z,14728.00
2023-05-22T10:43:58.305Z,15360.00
2023-05-22T10:44:58.257Z,14152.00
2023-05-22T10:45:58.288Z,13456.00
2023-05-22T10:46:58.257Z,42880.00
2023-05-22T10:47:58.258Z,51616.00
2023-05-22T10:49:03.235Z,52480.00
2023-05-22T10:49:58.216Z,28096.00
2023-05-22T10:50:59.925Z,13580.00
2023-05-22T10:51:58.262Z,15300.00
2023-05-22T10:52:58.173Z,14248.00
2023-05-22T10:53:58.147Z,11912.00
2023-05-22T10:54:58.267Z,10808.00
2023-05-22T10:55:58.202Z,11072.00
2023-05-22T10:56:58.130Z,11340.00
2023-05-22T10:57:58.123Z,11688.00
2023-05-22T10:58:58.140Z,11768.00
2023-05-22T10:59:58.085Z,14624.00
2023-05-22T11:00:58.083Z,16224.00
2023-05-22T11:02:03.154Z,14836.00
2023-05-22T11:03:03.335Z,13952.00
2023-05-22T11:03:58.082Z,15744.00
2023-05-22T11:04:58.092Z,64544.00
2023-05-22T11:05:58.051Z,66208.00
2023-05-22T11:06:58.020Z,55392.00
2023-05-22T11:07:58.006Z,42048.00
2023-05-22T11:08:57.984Z,38144.00
2023-05-22T11:09:57.979Z,15112.00
2023-05-22T11:10:58.102Z,22112.00
2023-05-22T11:11:57.956Z,25056.00
2023-05-22T11:12:57.965Z,51104.00
2023-05-22T11:13:57.955Z,20032.00
2023-05-22T11:15:02.958Z,75744.00
2023-05-22T11:15:57.970Z,80160.00
2023-05-22T11:16:57.950Z,39936.00
2023-05-22T11:17:57.939Z,58784.00
2023-05-22T11:18:59.017Z,60512.00
2023-05-22T11:19:57.978Z,65568.00
2023-05-22T11:20:57.871Z,54880.00
2023-05-22T11:21:57.856Z,11160.00
2023-05-22T11:22:57.835Z,8936.00
2023-05-22T11:23:57.836Z,9228.00
2023-05-22T11:24:57.840Z,65536.00
2023-05-22T11:25:57.818Z,36928.00
2023-05-22T11:26:57.919Z,17600.00
2023-05-22T11:28:02.848Z,17440.00
2023-05-22T11:28:57.800Z,18208.00
2023-05-22T11:29:57.800Z,57696.00
2023-05-22T11:30:57.846Z,43296.00
2023-05-22T11:31:57.753Z,45152.00
2023-05-22T11:32:57.754Z,18400.00
2023-05-22T11:33:57.716Z,15456.00
2023-05-22T11:34:57.730Z,12588.00
2023-05-22T11:35:57.712Z,16384.00
2023-05-22T11:36:57.688Z,15648.00
2023-05-22T11:37:57.679Z,14664.00
2023-05-22T11:38:57.677Z,16000.00
2023-05-22T11:39:57.680Z,15488.00
2023-05-22T11:41:02.671Z,15744.00
2023-05-22T11:41:57.672Z,17728.00
2023-05-22T11:42:57.768Z,13100.00
2023-05-22T11:43:57.622Z,22784.00
2023-05-22T11:44:57.596Z,22816.00
2023-05-22T11:45:57.665Z,42944.00
2023-05-22T11:46:57.578Z,75872.00
2023-05-22T11:47:57.639Z,80032.00
2023-05-22T11:48:57.575Z,80064.00
2023-05-22T11:49:57.557Z,78240.00
2023-05-22T11:50:57.530Z,80032.00
2023-05-22T11:51:57.542Z,80448.00
2023-05-22T11:52:57.542Z,81152.00
2023-05-22T11:54:02.571Z,81536.00
2023-05-22T11:54:57.493Z,82176.00
2023-05-22T11:55:57.476Z,82816.00
2023-05-22T11:56:57.494Z,81792.00
2023-05-22T11:57:57.472Z,82208.00
2023-05-22T11:58:57.582Z,84256.00
2023-05-22T11:59:57.464Z,81824.00
2023-05-22T12:00:57.427Z,81024.00
2023-05-22T12:01:57.412Z,82656.00
2023-05-22T12:02:57.451Z,83360.00
2023-05-22T12:03:57.525Z,80192.00
2023-05-22T12:05:02.403Z,78656.00
2023-05-22T12:05:57.457Z,80032.00
2023-05-22T12:06:57.406Z,79904.00
2023-05-22T12:07:57.360Z,79488.00
2023-05-22T12:08:57.332Z,81440.00
2023-05-22T12:09:57.336Z,82240.00
2023-05-22T12:10:57.312Z,82208.00
2023-05-22T12:11:57.322Z,82240.00
2023-05-22T12:12:57.292Z,81888.00
2023-05-22T12:13:57.278Z,84416.00
2023-05-22T12:14:57.380Z,84160.00
2023-05-22T12:16:02.325Z,83936.00
2023-05-22T12:16:57.388Z,82272.00
2023-05-22T12:17:57.295Z,81504.00
2023-05-22T12:18:57.291Z,81152.00
2023-05-22T12:19:57.245Z,83680.00
2023-05-22T12:20:57.229Z,85920.00
2023-05-22T12:21:57.208Z,51744.00
2023-05-22T12:22:57.206Z,12936.00
2023-05-22T12:23:57.240Z,7268.00
2023-05-22T12:24:57.187Z,7000.00
2023-05-22T12:25:57.180Z,6656.00
2023-05-22T12:27:02.169Z,6512.00
2023-05-22T12:27:57.138Z,6400.00
2023-05-22T12:28:57.137Z,6456.00
2023-05-22T12:29:57.146Z,6380.00
2023-05-22T12:30:57.225Z,6136.00
2023-05-22T12:31:57.182Z,6104.00
2023-05-22T12:32:57.112Z,5864.00
2023-05-22T12:33:57.076Z,5860.00
2023-05-22T12:34:57.073Z,5744.00
2023-05-22T12:35:57.059Z,5824.00
2023-05-22T12:36:57.057Z,5724.00
2023-05-22T12:38:02.060Z,5908.00
2023-05-22T12:38:57.020Z,5800.00
2023-05-22T12:39:57.024Z,5604.00
2023-05-22T12:40:57.050Z,5516.00
2023-05-22T12:41:56.995Z,5412.00
2023-05-22T12:42:56.992Z,5412.00
2023-05-22T12:43:56.971Z,5336.00
2023-05-22T12:44:56.979Z,5320.00
2023-05-22T12:45:57.046Z,5328.00
2023-05-22T12:46:57.060Z,5324.00
2023-05-22T12:47:56.950Z,5320.00
2023-05-22T12:49:01.944Z,5308.00
2023-05-22T12:49:56.940Z,5252.00
2023-05-22T12:50:56.909Z,5188.00
2023-05-22T12:51:56.880Z,5216.00
2023-05-22T12:52:56.867Z,5132.00
2023-05-22T12:53:56.864Z,5108.00
2023-05-22T12:54:56.863Z,5228.00
2023-05-22T12:55:56.837Z,5080.00
2023-05-22T12:56:56.837Z,5204.00
2023-05-22T12:57:56.818Z,5092.00
2023-05-22T12:58:56.807Z,5012.00
2023-05-22T12:59:56.819Z,4996.00
2023-05-22T13:00:56.797Z,4928.00
2023-05-22T13:02:02.086Z,4880.00
2023-05-22T13:02:56.804Z,4856.00
2023-05-22T13:03:56.783Z,4828.00
2023-05-22T13:04:56.780Z,4840.00
2023-05-22T13:05:56.740Z,4896.00
2023-05-22T13:06:56.709Z,4892.00
2023-05-22T13:07:56.704Z,5280.00
2023-05-22T13:08:57.617Z,5080.00
2023-05-22T13:09:56.681Z,5036.00
2023-05-22T13:10:56.675Z,5204.00
2023-05-22T13:11:56.709Z,5072.00
2023-05-22T13:12:56.647Z,5000.00
2023-05-22T13:13:56.645Z,4844.00
2023-05-22T13:15:01.645Z,4620.00
2023-05-22T13:15:56.670Z,4448.00
2023-05-22T13:16:56.635Z,4420.00
2023-05-22T13:17:56.785Z,4476.00
2023-05-22T13:18:56.648Z,4476.00
2023-05-22T13:19:56.574Z,4436.00
2023-05-22T13:20:56.558Z,4396.00
2023-05-22T13:21:56.552Z,4376.00
2023-05-22T13:22:56.569Z,4356.00
2023-05-22T13:23:56.527Z,4380.00
2023-05-22T13:24:56.511Z,4364.00
2023-05-22T13:25:56.507Z,4372.00
2023-05-22T13:26:56.521Z,4336.00
2023-05-22T13:28:01.515Z,4336.00
2023-05-22T13:28:56.507Z,4256.00
2023-05-22T13:29:56.513Z,4244.00
2023-05-22T13:30:56.529Z,4236.00
2023-05-22T13:31:56.447Z,4252.00
2023-05-22T13:32:56.481Z,4320.00
2023-05-22T13:33:56.596Z,4256.00
2023-05-22T13:34:56.403Z,4116.00
2023-05-22T13:35:56.401Z,3992.00
2023-05-22T13:36:56.529Z,3868.00
2023-05-22T13:37:56.373Z,3976.00
2023-05-22T13:38:56.369Z,4260.00
2023-05-22T13:39:56.361Z,4352.00
2023-05-22T13:41:01.367Z,4412.00
2023-05-22T13:41:56.367Z,4388.00
2023-05-22T13:42:56.366Z,4424.00
2023-05-22T13:43:56.309Z,4256.00
2023-05-22T13:44:56.299Z,4348.00
2023-05-22T13:45:56.332Z,4172.00
2023-05-22T13:46:56.345Z,4112.00
2023-05-22T13:47:56.290Z,4192.00
2023-05-22T13:48:56.261Z,3944.00
2023-05-22T13:49:56.355Z,3960.00
2023-05-22T13:50:56.250Z,3948.00
2023-05-22T13:51:56.224Z,3964.00
2023-05-22T13:52:56.208Z,3792.00
2023-05-22T13:54:01.247Z,3712.00
2023-05-22T13:54:56.196Z,4004.00
2023-05-22T13:55:56.192Z,3680.00
2023-05-22T13:56:56.194Z,3840.00
2023-05-22T13:57:56.157Z,3804.00
2023-05-22T13:58:56.147Z,3680.00
2023-05-22T13:59:56.150Z,3704.00
2023-05-22T14:00:56.159Z,3648.00
2023-05-22T14:01:56.135Z,3308.00
2023-05-22T14:02:56.154Z,3504.00
2023-05-22T14:03:56.179Z,3360.00
2023-05-22T14:05:01.254Z,3508.00
2023-05-22T14:05:56.101Z,3428.00
2023-05-22T14:06:56.082Z,3476.00
2023-05-22T14:07:56.050Z,3528.00
2023-05-22T14:08:56.044Z,3184.00
2023-05-22T14:09:56.034Z,3116.00
2023-05-22T14:10:56.008Z,3012.00
2023-05-22T14:11:56.001Z,2740.00
2023-05-22T14:12:55.988Z,2504.00
2023-05-22T14:13:55.986Z,2348.00
2023-05-22T14:14:55.961Z,2268.00
2023-05-22T14:15:55.972Z,2124.00
2023-05-22T14:16:55.952Z,2084.00
2023-05-22T14:18:01.009Z,2244.00
2023-05-22T14:18:56.166Z,2264.00
2023-05-22T14:19:55.957Z,2256.00
2023-05-22T14:20:56.020Z,2344.00
2023-05-22T14:21:55.906Z,2080.00
2023-05-22T14:22:58.256Z,1916.00
2023-05-22T14:23:55.893Z,1832.00
2023-05-22T14:24:55.847Z,1784.00
2023-05-22T14:25:55.846Z,1792.00
2023-05-22T14:26:55.831Z,1800.00
2023-05-22T14:27:55.843Z,1864.00
2023-05-22T14:28:55.816Z,1780.00
2023-05-22T14:29:55.828Z,1728.00
2023-05-22T14:31:00.821Z,1708.00
2023-05-22T14:31:55.779Z,1704.00
2023-05-22T14:32:55.831Z,1756.00
2023-05-22T14:33:55.767Z,1760.00
2023-05-22T14:34:55.782Z,1840.00
2023-05-22T14:35:55.741Z,1968.00
2023-05-22T14:36:55.847Z,2004.00
2023-05-22T14:37:55.726Z,2068.00
2023-05-22T14:38:55.695Z,2020.00
2023-05-22T14:39:55.685Z,2164.00
2023-05-22T14:40:55.738Z,2260.00
2023-05-22T14:42:00.698Z,2188.00
2023-05-22T14:42:55.691Z,2320.00
2023-05-22T14:43:55.653Z,2388.00
2023-05-22T14:44:55.627Z,2340.00
2023-05-22T14:45:55.739Z,2492.00
2023-05-22T14:46:55.621Z,2324.00
2023-05-22T14:47:55.650Z,2444.00
2023-05-22T14:48:55.585Z,2400.00
2023-05-22T14:50:02.760Z,2476.00
2023-05-22T14:50:55.578Z,2676.00
2023-05-22T14:51:55.573Z,2584.00
2023-05-22T14:53:00.678Z,2744.00
2023-05-22T14:53:55.547Z,2868.00
2023-05-22T14:54:55.566Z,2760.00
2023-05-22T14:55:55.534Z,2672.00
2023-05-22T14:56:55.505Z,2792.00
2023-05-22T14:57:55.494Z,2644.00
2023-05-22T14:58:55.491Z,2736.00
2023-05-22T14:59:55.469Z,2728.00
2023-05-22T15:00:55.479Z,2692.00
2023-05-22T15:01:55.497Z,2704.00
2023-05-22T15:02:55.494Z,2740.00
2023-05-22T15:04:00.465Z,2728.00
2023-05-22T15:04:55.458Z,2752.00
2023-05-22T15:05:55.427Z,2812.00
2023-05-22T15:06:55.385Z,2732.00
2023-05-22T15:07:55.410Z,2800.00
2023-05-22T15:08:55.477Z,2872.00
2023-05-22T15:09:55.372Z,2980.00
2023-05-22T15:10:55.364Z,2984.00
2023-05-22T15:11:55.335Z,2988.00
2023-05-22T15:12:55.327Z,3024.00
2023-05-22T15:13:55.316Z,3096.00
2023-05-22T15:15:00.345Z,3140.00
2023-05-22T15:15:55.336Z,3220.00
2023-05-22T15:16:55.273Z,3240.00
2023-05-22T15:17:55.336Z,3172.00
2023-05-22T15:18:55.272Z,3180.00
2023-05-22T15:19:55.253Z,3220.00
2023-05-22T15:20:55.241Z,3280.00
2023-05-22T15:21:56.070Z,3444.00
2023-05-22T15:22:55.209Z,3372.00
2023-05-22T15:23:55.227Z,3236.00
2023-05-22T15:24:55.329Z,3448.00
2023-05-22T15:26:00.200Z,3704.00
2023-05-22T15:26:55.159Z,3608.00
2023-05-22T15:27:55.165Z,3236.00
2023-05-22T15:28:55.150Z,3252.00
2023-05-22T15:29:55.131Z,3012.00
2023-05-22T15:30:55.171Z,3048.00
2023-05-22T15:31:55.147Z,3008.00
2023-05-22T15:32:55.140Z,3064.00
2023-05-22T15:33:55.102Z,2796.00
2023-05-22T15:34:55.083Z,2792.00
2023-05-22T15:35:55.066Z,2976.00
2023-05-22T15:37:00.101Z,2640.00
2023-05-22T15:37:55.039Z,2524.00
2023-05-22T15:38:55.048Z,2564.00
2023-05-22T15:39:55.087Z,2592.00
2023-05-22T15:40:55.130Z,2192.00
2023-05-22T15:42:06.038Z,2120.00
2023-05-22T15:42:55.012Z,2068.00
2023-05-22T15:43:55.023Z,1964.00
2023-05-22T15:44:54.973Z,1880.00
2023-05-22T15:45:55.046Z,1752.00
2023-05-22T15:46:54.980Z,1656.00
2023-05-22T15:47:59.991Z,1708.00
2023-05-22T15:48:54.917Z,1572.00
2023-05-22T15:49:54.914Z,1544.00
2023-05-22T15:50:54.894Z,1588.00
2023-05-22T15:51:54.893Z,1536.00
2023-05-22T15:52:54.891Z,1500.00
2023-05-22T15:53:54.874Z,1556.00
2023-05-22T15:54:56.359Z,1544.00
2023-05-22T15:55:54.846Z,1540.00
2023-05-22T15:56:54.871Z,1688.00
2023-05-22T15:57:54.841Z,1732.00
2023-05-22T15:58:59.832Z,1760.00
2023-05-22T15:59:54.821Z,1748.00
2023-05-22T16:00:54.891Z,1816.00
2023-05-22T16:01:54.805Z,1944.00
2023-05-22T16:02:54.905Z,2072.00
2023-05-22T16:03:54.813Z,2128.00
2023-05-22T16:04:54.744Z,2224.00
2023-05-22T16:05:54.753Z,2252.00
2023-05-22T16:06:54.761Z,2440.00
2023-05-22T16:07:54.720Z,2424.00
2023-05-22T16:08:54.700Z,2352.00
2023-05-22T16:09:59.717Z,2312.00
2023-05-22T16:10:54.691Z,2380.00
2023-05-22T16:11:54.678Z,2388.00
2023-05-22T16:12:54.678Z,2276.00
2023-05-22T16:13:54.646Z,2248.00
2023-05-22T16:15:00.236Z,2176.00
2023-05-22T16:15:54.768Z,2108.00
2023-05-22T16:16:54.616Z,2044.00
2023-05-22T16:17:54.727Z,2048.00
2023-05-22T16:18:54.615Z,2092.00
2023-05-22T16:19:54.574Z,2056.00
2023-05-22T16:20:59.596Z,1864.00
2023-05-22T16:21:54.595Z,1808.00
2023-05-22T16:22:54.548Z,1784.00
2023-05-22T16:23:54.621Z,1724.00
2023-05-22T16:24:54.523Z,1672.00
2023-05-22T16:25:54.539Z,1600.00
2023-05-22T16:26:54.505Z,1552.00
2023-05-22T16:27:54.648Z,1496.00
2023-05-22T16:28:54.596Z,1428.00
2023-05-22T16:29:54.660Z,1352.00
2023-05-22T16:30:54.674Z,1288.00
2023-05-22T16:31:59.857Z,1224.00
2023-05-22T16:32:54.608Z,1208.00
2023-05-22T16:33:54.474Z,1196.00
2023-05-22T16:34:54.445Z,1136.00
2023-05-22T16:35:54.411Z,1112.00
2023-05-22T16:36:54.519Z,1096.00
2023-05-22T16:37:54.375Z,1076.00
2023-05-22T16:38:54.440Z,1032.00
2023-05-22T16:39:54.495Z,988.00
2023-05-22T16:40:54.542Z,960.00
2023-05-22T16:41:54.450Z,916.00
2023-05-22T16:42:59.371Z,856.00
2023-05-22T16:43:54.343Z,812.00
2023-05-22T16:44:54.490Z,788.00
2023-05-22T16:45:54.292Z,756.00
2023-05-22T16:46:54.476Z,740.00
2023-05-22T16:47:55.953Z,708.00
2023-05-22T16:48:54.336Z,716.00
2023-05-22T16:49:54.304Z,688.00
2023-05-22T16:50:54.287Z,692.00
2023-05-22T16:51:54.302Z,696.00
2023-05-22T16:52:54.316Z,744.00
2023-05-22T16:53:59.237Z,760.00
2023-05-22T16:54:54.218Z,808.00
2023-05-22T16:55:54.197Z,784.00
2023-05-22T16:56:54.495Z,808.00
2023-05-22T16:57:54.155Z,808.00
2023-05-22T16:58:54.324Z,816.00
2023-05-22T16:59:55.888Z,856.00
2023-05-22T17:00:54.259Z,876.00
2023-05-22T17:01:54.170Z,912.00
2023-05-22T17:02:54.256Z,968.00
2023-05-22T17:03:54.228Z,980.00
2023-05-22T17:04:59.177Z,1008.00
2023-05-22T17:05:54.254Z,1024.00
2023-05-22T17:06:54.054Z,1056.00
2023-05-22T17:07:54.060Z,1120.00
2023-05-22T17:08:54.034Z,1068.00
2023-05-22T17:09:54.022Z,1120.00
2023-05-22T17:10:54.002Z,1080.00
2023-05-22T17:11:54.113Z,1064.00
2023-05-22T17:12:53.988Z,1044.00
2023-05-22T17:13:53.979Z,988.00
2023-05-22T17:14:54.012Z,948.00
2023-05-22T17:15:59.101Z,932.00
2023-05-22T17:16:54.051Z,884.00
2023-05-22T17:17:54.013Z,816.00
2023-05-22T17:18:55.050Z,764.00
2023-05-22T17:19:53.902Z,716.00
2023-05-22T17:20:54.018Z,684.00
2023-05-22T17:21:53.887Z,648.00
2023-05-22T17:22:53.894Z,632.00
2023-05-22T17:23:53.857Z,616.00
2023-05-22T17:24:53.843Z,612.00
2023-05-22T17:25:53.876Z,604.00
2023-05-22T17:26:58.851Z,612.00
2023-05-22T17:27:53.812Z,588.00
2023-05-22T17:28:53.817Z,584.00
2023-05-22T17:29:53.801Z,564.00
2023-05-22T17:30:53.779Z,544.00
2023-05-22T17:31:53.958Z,504.00
2023-05-22T17:32:53.843Z,480.00
2023-05-22T17:33:53.762Z,452.00
2023-05-22T17:34:53.735Z,428.00
2023-05-22T17:35:53.736Z,412.00
2023-05-22T17:36:53.735Z,400.00
2023-05-22T17:37:58.729Z,396.00
2023-05-22T17:38:53.694Z,380.00
2023-05-22T17:39:53.693Z,376.00